FAHT weather

Hoedspruit Airport
Hoedspruit, Limpopo, South Africa

Public forecast

Using degrees Celsius for public forecast. Weather courtesy of forecast.io.

METAR (pilot weather report)

Closest report is Hoedspruit Air Force Base Airport, 5.5 nm (10.2 km) E. Retrieved 2019/05/19 16:00 UTC (53 minutes ago):

FAHS 191600Z AUTO 12002KT //// // ////// 24/11 Q1020

TAF (pilot weather forecast)

Forecast is more than 12 hours old.

Closest forecast is Hoedspruit Air Force Base Airport, 5.5 nm (10.2 km) E. Retrieved 2017/05/23 04:01 UTC (2 years ago):

TAF FAHS 230300Z 2304/2315 VRB02KT CAVOK TX29/2312ZTN12/2304Z